createdAt,value
2023-01-13T00:00:15.618Z,92.33
2023-01-13T00:02:42.283Z,94.05
2023-01-13T00:05:09.821Z,93.47
2023-01-13T00:07:36.570Z,92.43
2023-01-13T00:10:03.392Z,94.58
2023-01-13T00:12:30.119Z,94.18
2023-01-13T00:14:57.025Z,93.20
2023-01-13T00:17:23.627Z,92.35
2023-01-13T00:19:50.222Z,93.26
2023-01-13T00:22:16.802Z,93.58
2023-01-13T00:24:43.375Z,93.18
2023-01-13T00:27:09.934Z,92.58
2023-01-13T00:29:36.459Z,92.09
2023-01-13T00:32:03.111Z,91.08
2023-01-13T00:34:29.636Z,91.00
2023-01-13T00:36:57.899Z,89.88
2023-01-13T00:39:24.505Z,89.77
2023-01-13T00:42:09.671Z,88.60
2023-01-13T00:44:36.230Z,86.43
2023-01-13T00:47:02.860Z,88.81
2023-01-13T00:49:29.383Z,88.21
2023-01-13T00:51:55.933Z,88.45
2023-01-13T00:54:22.504Z,88.29
2023-01-13T00:56:49.461Z,87.74
2023-01-13T00:59:16.047Z,88.43
2023-01-13T01:01:42.859Z,87.40
2023-01-13T01:04:09.619Z,86.06
2023-01-13T01:06:36.238Z,87.09
2023-01-13T01:09:04.039Z,86.62
2023-01-13T01:11:33.130Z,85.79
2023-01-13T01:14:02.704Z,87.45
2023-01-13T01:16:31.590Z,86.71
2023-01-13T01:18:58.442Z,86.55
2023-01-13T01:21:26.860Z,88.28
2023-01-13T01:23:53.878Z,86.46
2023-01-13T01:26:22.886Z,86.16
2023-01-13T01:28:50.087Z,86.89
2023-01-13T01:31:19.935Z,86.59
2023-01-13T01:33:47.709Z,87.58
2023-01-13T01:36:16.081Z,86.48
2023-01-13T01:38:43.447Z,83.94
2023-01-13T01:41:16.944Z,84.57
2023-01-13T01:44:00.311Z,83.74
2023-01-13T01:49:18.117Z,81.36
2023-01-13T01:51:56.767Z,80.15
2023-01-13T01:54:40.508Z,78.76
2023-01-13T01:57:11.315Z,78.01
2023-01-13T01:59:39.403Z,78.27
2023-01-13T02:02:06.732Z,77.02
2023-01-13T02:04:36.509Z,77.14
2023-01-13T02:07:03.729Z,77.34
2023-01-13T02:09:30.926Z,77.08
2023-01-13T02:12:16.145Z,76.08
2023-01-13T02:14:44.165Z,76.11
2023-01-13T02:17:35.075Z,74.67
2023-01-13T02:20:13.491Z,75.61
2023-01-13T02:23:01.813Z,76.57
2023-01-13T02:25:55.831Z,77.26
2023-01-13T02:29:23.588Z,77.98
2023-01-13T02:31:54.828Z,77.82
2023-01-13T02:34:25.942Z,78.70
2023-01-13T02:36:57.729Z,79.79
2023-01-13T02:39:42.116Z,79.94
2023-01-13T02:43:04.100Z,79.19
2023-01-13T02:45:37.764Z,78.84
2023-01-13T02:48:07.804Z,79.51
2023-01-13T02:51:05.023Z,79.62
2023-01-13T02:53:41.461Z,78.69
2023-01-13T02:56:10.192Z,78.03
2023-01-13T02:58:39.587Z,76.89
2023-01-13T03:01:06.238Z,78.32
2023-01-13T03:03:32.917Z,78.20
2023-01-13T03:06:16.131Z,78.34
2023-01-13T03:08:54.885Z,77.42
2023-01-13T03:11:22.157Z,76.46
2023-01-13T03:13:54.777Z,76.08
2023-01-13T03:16:33.706Z,76.53
2023-01-13T03:19:24.958Z,75.77
2023-01-13T03:21:54.620Z,73.79
2023-01-13T03:24:30.384Z,73.89
2023-01-13T03:27:05.764Z,73.26
2023-01-13T03:29:46.187Z,71.62
2023-01-13T03:32:20.233Z,71.17
2023-01-13T03:34:51.612Z,72.66
2023-01-13T03:37:25.323Z,69.90
2023-01-13T03:39:57.540Z,68.43
2023-01-13T03:42:26.361Z,68.02
2023-01-13T03:45:00.521Z,65.50
2023-01-13T03:47:53.391Z,63.91
2023-01-13T03:50:37.296Z,65.07
2023-01-13T03:53:10.789Z,63.40
2023-01-13T03:55:47.146Z,62.57
2023-01-13T03:58:26.024Z,62.87
2023-01-13T04:01:14.759Z,62.73
2023-01-13T04:04:01.039Z,63.43
2023-01-13T04:06:48.867Z,64.53
2023-01-13T04:09:19.572Z,64.74
2023-01-13T04:11:59.498Z,65.39
2023-01-13T04:14:27.787Z,65.45
2023-01-13T04:16:55.375Z,63.66
2023-01-13T04:19:22.048Z,65.33
2023-01-13T04:21:48.615Z,64.80
2023-01-13T04:24:15.189Z,63.89
2023-01-13T04:26:41.772Z,63.35
2023-01-13T04:29:08.379Z,63.96
2023-01-13T04:31:35.047Z,65.10
2023-01-13T04:34:01.759Z,64.86
2023-01-13T04:36:28.354Z,64.64
2023-01-13T04:38:55.219Z,65.14
2023-01-13T04:41:22.041Z,65.30
2023-01-13T04:43:48.620Z,65.07
2023-01-13T04:46:15.268Z,66.10
2023-01-13T04:48:41.841Z,65.89
2023-01-13T04:51:08.485Z,66.76
2023-01-13T04:53:35.086Z,65.70
2023-01-13T04:56:01.712Z,65.92
2023-01-13T04:58:28.266Z,65.50
2023-01-13T05:00:55.460Z,66.22
2023-01-13T05:03:24.219Z,67.42
2023-01-13T05:05:52.184Z,68.06
2023-01-13T05:08:18.765Z,67.86
2023-01-13T05:10:45.368Z,68.01
2023-01-13T05:13:30.485Z,66.36
2023-01-13T05:16:15.899Z,65.60
2023-01-13T05:18:42.565Z,65.58
2023-01-13T05:21:29.103Z,65.76
2023-01-13T05:24:14.062Z,63.43
2023-01-13T05:26:40.621Z,64.29
2023-01-13T05:29:07.193Z,63.76
2023-01-13T05:31:33.803Z,63.59
2023-01-13T05:34:00.347Z,65.44
2023-01-13T05:36:26.889Z,66.16
2023-01-13T05:38:53.573Z,65.67
2023-01-13T05:41:38.653Z,66.57
2023-01-13T05:44:05.293Z,66.35
2023-01-13T05:46:32.051Z,65.77
2023-01-13T05:49:00.776Z,66.19
2023-01-13T05:51:27.365Z,65.43
2023-01-13T05:53:53.922Z,68.19
2023-01-13T05:56:20.475Z,66.74
2023-01-13T05:58:47.038Z,67.94
2023-01-13T06:01:13.724Z,69.84
2023-01-13T06:03:40.294Z,69.67
2023-01-13T06:06:08.909Z,69.97
2023-01-13T06:08:38.017Z,69.82
2023-01-13T06:11:06.037Z,69.58
2023-01-13T06:13:32.636Z,69.58
2023-01-13T06:15:59.402Z,68.53
2023-01-13T06:18:26.823Z,69.24
2023-01-13T06:20:53.451Z,69.02
2023-01-13T06:23:20.271Z,70.95
2023-01-13T06:25:50.797Z,69.15
2023-01-13T06:28:17.546Z,68.78
2023-01-13T06:30:55.545Z,68.38
2023-01-13T06:33:29.237Z,69.04
2023-01-13T06:36:00.121Z,71.19
2023-01-13T06:38:30.104Z,71.20
2023-01-13T06:40:56.810Z,71.51
2023-01-13T06:43:23.432Z,71.29
2023-01-13T06:45:49.939Z,71.27
2023-01-13T06:48:18.232Z,71.99
2023-01-13T06:50:45.164Z,72.60
2023-01-13T06:53:12.225Z,73.40
2023-01-13T06:55:38.827Z,73.86
2023-01-13T06:58:05.678Z,73.65
2023-01-13T07:00:33.075Z,74.29
2023-01-13T07:03:09.790Z,75.27
2023-01-13T07:05:36.771Z,74.26
2023-01-13T07:08:03.903Z,74.53
2023-01-13T07:10:31.568Z,73.61
2023-01-13T07:13:19.789Z,74.86
2023-01-13T07:16:03.563Z,76.25
2023-01-13T07:18:31.899Z,75.24
2023-01-13T07:21:04.426Z,75.40
2023-01-13T07:23:34.100Z,74.69
2023-01-13T07:26:01.173Z,74.33
2023-01-13T07:28:29.869Z,74.03
2023-01-13T07:30:57.448Z,73.58
2023-01-13T07:33:24.426Z,74.66
2023-01-13T07:35:59.131Z,72.50
2023-01-13T07:38:26.005Z,69.31
2023-01-13T07:40:52.647Z,70.23
2023-01-13T07:43:34.332Z,71.89
2023-01-13T07:46:04.514Z,73.11
2023-01-13T07:48:33.325Z,73.10
2023-01-13T07:51:04.908Z,74.45
2023-01-13T07:53:32.238Z,72.41
2023-01-13T07:55:59.911Z,74.53
2023-01-13T07:58:27.527Z,73.68
2023-01-13T08:00:55.537Z,73.77
2023-01-13T08:03:23.595Z,72.04
2023-01-13T08:05:50.592Z,71.56
2023-01-13T08:08:17.288Z,70.29
2023-01-13T08:10:44.991Z,71.09
2023-01-13T08:13:18.196Z,70.53
2023-01-13T08:15:58.562Z,69.12
2023-01-13T08:18:25.422Z,68.72
2023-01-13T08:20:52.808Z,69.64
2023-01-13T08:23:20.717Z,67.64
2023-01-13T08:25:48.466Z,66.66
2023-01-13T08:28:16.467Z,67.60
2023-01-13T08:30:43.199Z,64.41
2023-01-13T08:33:11.629Z,65.21
2023-01-13T08:35:39.677Z,66.19
2023-01-13T08:38:07.030Z,64.12
2023-01-13T08:40:33.912Z,61.99
2023-01-13T08:43:00.848Z,61.84
2023-01-13T08:45:27.454Z,62.39
2023-01-13T08:47:54.097Z,64.17
2023-01-13T08:50:20.850Z,63.48
2023-01-13T08:52:47.430Z,64.20
2023-01-13T08:55:13.976Z,61.72
2023-01-13T08:57:40.666Z,61.53
2023-01-13T09:00:08.349Z,61.45
2023-01-13T09:02:34.950Z,62.07
2023-01-13T09:05:03.867Z,61.93
2023-01-13T09:07:31.511Z,61.38
2023-01-13T09:09:58.293Z,60.72
2023-01-13T09:12:43.587Z,61.43
2023-01-13T09:15:10.953Z,60.98
2023-01-13T09:17:37.520Z,60.76
2023-01-13T09:20:05.136Z,60.13
2023-01-13T09:22:31.781Z,61.22
2023-01-13T09:24:58.358Z,61.48
2023-01-13T09:27:25.034Z,59.68
2023-01-13T09:29:51.583Z,58.94
2023-01-13T09:32:18.232Z,59.29
2023-01-13T09:35:00.046Z,58.74
2023-01-13T09:37:38.138Z,58.85
2023-01-13T09:40:14.659Z,60.18
2023-01-13T09:43:11.388Z,58.87
2023-01-13T09:45:59.849Z,58.58
2023-01-13T09:48:51.877Z,58.76
2023-01-13T09:51:41.646Z,59.61
2023-01-13T09:54:16.506Z,59.66
2023-01-13T09:56:43.624Z,58.90
2023-01-13T09:59:12.258Z,58.60
2023-01-13T10:01:53.664Z,58.45
2023-01-13T10:04:20.595Z,58.58
2023-01-13T10:06:56.281Z,55.95
2023-01-13T10:09:33.896Z,55.51
2023-01-13T10:12:21.352Z,55.53
2023-01-13T10:14:55.102Z,56.80
2023-01-13T10:17:39.944Z,58.63
2023-01-13T10:20:22.565Z,57.17
2023-01-13T10:23:21.603Z,57.51
2023-01-13T10:26:17.914Z,58.57
2023-01-13T10:28:51.838Z,57.40
2023-01-13T10:31:20.337Z,56.05
2023-01-13T10:33:47.106Z,57.29
2023-01-13T10:36:16.432Z,56.21
2023-01-13T10:38:46.786Z,56.18
2023-01-13T10:41:16.222Z,56.16
2023-01-13T10:43:44.497Z,56.85
2023-01-13T10:46:16.271Z,58.02
2023-01-13T10:48:53.270Z,58.04
2023-01-13T10:51:30.260Z,59.38
2023-01-13T10:53:59.209Z,61.27
2023-01-13T10:56:34.157Z,63.82
2023-01-13T10:59:23.480Z,65.48
2023-01-13T11:02:04.038Z,66.57
2023-01-13T11:04:40.641Z,69.39
2023-01-13T11:07:35.328Z,69.58
2023-01-13T11:10:23.710Z,68.87
2023-01-13T11:13:18.065Z,70.98
2023-01-13T11:15:59.054Z,80.59
2023-01-13T11:18:31.113Z,83.58
2023-01-13T11:21:00.311Z,92.42
2023-01-13T11:23:42.742Z,93.67
2023-01-13T11:26:16.321Z,93.15
2023-01-13T11:28:45.738Z,92.05
2023-01-13T11:31:17.124Z,92.13
2023-01-13T11:33:59.979Z,87.85
2023-01-13T11:36:38.538Z,84.38
2023-01-13T11:39:30.045Z,84.76
2023-01-13T11:42:20.915Z,80.71
2023-01-13T11:45:19.712Z,80.08
2023-01-13T11:47:49.144Z,80.70
2023-01-13T11:50:34.598Z,79.58
2023-01-13T11:53:18.579Z,79.90
2023-01-13T11:56:32.831Z,77.30
2023-01-13T11:59:18.501Z,81.98
2023-01-13T12:02:03.580Z,80.17
2023-01-13T12:04:40.518Z,81.65
2023-01-13T12:07:35.868Z,84.94
2023-01-13T12:10:13.266Z,85.24
2023-01-13T12:13:09.169Z,85.21
2023-01-13T12:16:01.648Z,85.13
2023-01-13T12:18:34.803Z,87.16
2023-01-13T12:21:14.505Z,91.45
2023-01-13T12:23:58.196Z,100.00
2023-01-13T12:26:24.870Z,100.00
2023-01-13T12:28:51.433Z,100.00
2023-01-13T12:31:20.690Z,100.00
2023-01-13T12:34:13.489Z,100.00
2023-01-13T12:37:04.236Z,100.00
2023-01-13T12:39:50.879Z,100.00
2023-01-13T12:42:42.053Z,100.00
2023-01-13T12:45:11.249Z,100.00
2023-01-13T12:47:49.069Z,99.04
2023-01-13T12:50:21.702Z,96.88
2023-01-13T12:52:59.515Z,96.85
2023-01-13T12:55:27.270Z,96.64
2023-01-13T12:58:15.893Z,97.57
2023-01-13T13:00:43.957Z,99.03
2023-01-13T13:03:18.581Z,98.28
2023-01-13T13:05:55.252Z,97.55
2023-01-13T13:08:36.947Z,97.81
2023-01-13T13:11:06.510Z,95.84
2023-01-13T13:13:45.181Z,91.23
2023-01-13T13:16:27.286Z,87.25
2023-01-13T13:19:22.591Z,89.89
2023-01-13T13:22:07.371Z,90.13
2023-01-13T13:24:34.087Z,86.02
2023-01-13T13:27:18.169Z,85.01
2023-01-13T13:29:58.901Z,83.13
2023-01-13T13:32:25.429Z,83.23
2023-01-13T13:35:07.159Z,80.86
2023-01-13T13:38:01.387Z,77.10
2023-01-13T13:40:50.114Z,69.66
2023-01-13T13:43:35.931Z,75.45
2023-01-13T13:46:21.402Z,77.09
2023-01-13T13:48:54.211Z,78.93
2023-01-13T13:51:31.019Z,80.32
2023-01-13T13:53:59.416Z,76.85
2023-01-13T13:56:28.109Z,78.30
2023-01-13T13:58:55.221Z,80.57
2023-01-13T14:01:23.561Z,80.72
2023-01-13T14:04:35.569Z,82.22
2023-01-13T14:07:18.552Z,84.24
2023-01-13T14:09:56.458Z,87.57
2023-01-13T14:12:25.997Z,100.00
2023-01-13T14:14:55.904Z,100.00
2023-01-13T14:17:24.383Z,100.00
2023-01-13T14:19:53.732Z,100.00
2023-01-13T14:22:22.921Z,100.00
2023-01-13T14:24:55.427Z,100.00
2023-01-13T14:27:24.023Z,100.00
2023-01-13T14:29:56.503Z,100.00
2023-01-13T14:32:34.633Z,100.00
2023-01-13T14:35:01.421Z,100.00
2023-01-13T14:37:27.939Z,100.00
2023-01-13T14:39:54.725Z,100.00
2023-01-13T14:42:22.176Z,100.00
2023-01-13T14:44:51.288Z,100.00
2023-01-13T14:47:26.767Z,100.00
2023-01-13T14:50:05.941Z,100.00
2023-01-13T14:52:46.283Z,100.00
2023-01-13T14:55:32.752Z,100.00
2023-01-13T14:58:30.745Z,100.00
2023-01-13T15:01:26.652Z,100.00
2023-01-13T15:03:53.320Z,100.00
2023-01-13T15:06:25.067Z,100.00
2023-01-13T15:08:51.928Z,100.00
2023-01-13T15:11:28.028Z,100.00
2023-01-13T15:14:01.440Z,100.00
2023-01-13T15:16:29.799Z,100.00
2023-01-13T15:18:57.770Z,100.00
2023-01-13T15:21:25.045Z,100.00
2023-01-13T15:23:51.655Z,100.00
2023-01-13T15:26:25.560Z,100.00
2023-01-13T15:28:53.656Z,100.00
2023-01-13T15:31:20.691Z,100.00
2023-01-13T15:33:48.849Z,100.00
2023-01-13T15:36:31.005Z,100.00
2023-01-13T15:38:59.449Z,100.00
2023-01-13T15:41:45.177Z,100.00
2023-01-13T15:44:32.357Z,100.00
2023-01-13T15:47:02.512Z,100.00
2023-01-13T15:49:43.543Z,100.00
2023-01-13T15:52:24.635Z,100.00
2023-01-13T15:54:52.506Z,100.00
2023-01-13T15:57:31.767Z,100.00
2023-01-13T16:00:01.420Z,100.00
2023-01-13T16:02:33.288Z,100.00
2023-01-13T16:04:59.843Z,100.00
2023-01-13T16:07:26.517Z,100.00
2023-01-13T16:09:53.112Z,100.00
2023-01-13T16:12:19.806Z,100.00
2023-01-13T16:14:46.420Z,100.00
2023-01-13T16:17:18.887Z,100.00
2023-01-13T16:19:47.597Z,100.00
2023-01-13T16:22:15.879Z,100.00
2023-01-13T16:24:43.084Z,100.00
2023-01-13T16:27:15.230Z,100.00
2023-01-13T16:29:42.820Z,100.00
2023-01-13T16:32:09.483Z,100.00
2023-01-13T16:34:36.220Z,100.00
2023-01-13T16:37:03.247Z,100.00
2023-01-13T16:39:30.952Z,100.00
2023-01-13T16:41:57.587Z,100.00
2023-01-13T16:44:24.261Z,100.00
2023-01-13T16:46:50.936Z,100.00
2023-01-13T16:49:18.265Z,100.00
2023-01-13T16:51:44.862Z,100.00
2023-01-13T16:54:12.178Z,100.00
2023-01-13T16:56:38.793Z,100.00
2023-01-13T16:59:13.543Z,100.00
2023-01-13T17:01:42.905Z,100.00
2023-01-13T17:04:21.217Z,100.00
2023-01-13T17:06:54.248Z,100.00
2023-01-13T17:09:24.005Z,100.00
2023-01-13T17:11:51.103Z,100.00
2023-01-13T17:14:19.851Z,100.00
2023-01-13T17:16:46.975Z,100.00
2023-01-13T17:19:13.821Z,100.00
2023-01-13T17:21:40.845Z,100.00
2023-01-13T17:24:09.490Z,100.00
2023-01-13T17:26:47.188Z,100.00
2023-01-13T17:29:19.338Z,100.00
2023-01-13T17:31:45.995Z,100.00
2023-01-13T17:34:13.349Z,100.00
2023-01-13T17:36:40.793Z,100.00
2023-01-13T17:39:07.461Z,100.00
2023-01-13T17:41:34.028Z,100.00
2023-01-13T17:44:00.745Z,100.00
2023-01-13T17:46:27.410Z,100.00
2023-01-13T17:48:54.611Z,100.00
2023-01-13T17:51:22.774Z,100.00
2023-01-13T17:53:49.509Z,100.00
2023-01-13T17:56:17.037Z,100.00
2023-01-13T17:58:45.391Z,100.00
2023-01-13T18:01:18.035Z,100.00
2023-01-13T18:03:45.155Z,100.00
2023-01-13T18:06:20.229Z,100.00
2023-01-13T18:08:47.707Z,100.00
2023-01-13T18:11:18.702Z,100.00
2023-01-13T18:13:49.470Z,100.00
2023-01-13T18:16:18.595Z,100.00
2023-01-13T18:18:47.861Z,100.00
2023-01-13T18:21:44.044Z,100.00
2023-01-13T18:24:34.940Z,100.00
2023-01-13T18:27:23.789Z,100.00
2023-01-13T18:29:52.960Z,100.00
2023-01-13T18:32:20.835Z,100.00
2023-01-13T18:34:48.018Z,100.00
2023-01-13T18:37:16.781Z,100.00
2023-01-13T18:39:43.419Z,100.00
2023-01-13T18:42:43.303Z,100.00
2023-01-13T18:45:10.719Z,100.00
2023-01-13T18:47:39.144Z,100.00
2023-01-13T18:50:06.289Z,100.00
2023-01-13T18:52:32.854Z,100.00
2023-01-13T18:54:59.410Z,100.00
2023-01-13T18:57:25.977Z,100.00
2023-01-13T18:59:52.571Z,100.00
2023-01-13T19:02:20.820Z,100.00
2023-01-13T19:04:47.681Z,100.00
2023-01-13T19:07:22.264Z,100.00
2023-01-13T19:09:50.041Z,100.00
2023-01-13T19:12:25.697Z,100.00
2023-01-13T19:14:54.363Z,100.00
2023-01-13T19:17:22.022Z,100.00
2023-01-13T19:19:53.940Z,100.00
2023-01-13T19:22:27.116Z,100.00
2023-01-13T19:24:54.065Z,100.00
2023-01-13T19:27:21.928Z,100.00
2023-01-13T19:29:52.487Z,100.00
2023-01-13T19:32:22.626Z,100.00
2023-01-13T19:34:51.139Z,100.00
2023-01-13T19:37:34.037Z,100.00
2023-01-13T19:40:14.326Z,100.00
2023-01-13T19:43:01.748Z,100.00
2023-01-13T19:45:30.440Z,100.00
2023-01-13T19:47:59.147Z,100.00
2023-01-13T19:50:25.814Z,100.00
2023-01-13T19:52:52.385Z,100.00
2023-01-13T19:55:19.787Z,100.00
2023-01-13T19:57:46.683Z,100.00
2023-01-13T20:00:17.034Z,100.00
2023-01-13T20:02:49.077Z,100.00
2023-01-13T20:05:25.597Z,100.00
2023-01-13T20:07:52.462Z,100.00
2023-01-13T20:10:20.902Z,100.00
2023-01-13T20:12:47.788Z,100.00
2023-01-13T20:15:14.541Z,100.00
2023-01-13T20:17:41.667Z,100.00
2023-01-13T20:20:11.828Z,100.00
2023-01-13T20:22:39.307Z,100.00
2023-01-13T20:25:06.726Z,100.00
2023-01-13T20:27:33.464Z,100.00
2023-01-13T20:30:00.204Z,100.00
2023-01-13T20:32:26.917Z,100.00
2023-01-13T20:34:53.491Z,100.00
2023-01-13T20:37:20.067Z,100.00
2023-01-13T20:39:47.191Z,100.00
2023-01-13T20:42:29.253Z,100.00
2023-01-13T20:44:56.975Z,100.00
2023-01-13T20:47:23.619Z,100.00
2023-01-13T20:49:50.164Z,100.00
2023-01-13T20:52:16.864Z,100.00
2023-01-13T20:54:43.485Z,100.00
2023-01-13T20:57:11.416Z,100.00
2023-01-13T20:59:38.683Z,100.00
2023-01-13T21:02:10.337Z,100.00
2023-01-13T21:04:36.938Z,100.00
2023-01-13T21:07:03.715Z,100.00
2023-01-13T21:09:30.803Z,100.00
2023-01-13T21:12:16.152Z,100.00
2023-01-13T21:15:01.505Z,100.00
2023-01-13T21:17:46.618Z,100.00
2023-01-13T21:20:14.705Z,100.00
2023-01-13T21:22:46.830Z,100.00
2023-01-13T21:25:14.422Z,100.00
2023-01-13T21:27:41.710Z,100.00
2023-01-13T21:30:08.929Z,100.00
2023-01-13T21:32:35.494Z,100.00
2023-01-13T21:35:02.137Z,100.00
2023-01-13T21:37:28.713Z,100.00
2023-01-13T21:39:56.910Z,100.00
2023-01-13T21:42:46.307Z,100.00
2023-01-13T21:45:31.288Z,100.00
2023-01-13T21:47:57.944Z,100.00
2023-01-13T21:50:27.918Z,100.00
2023-01-13T21:52:55.466Z,100.00
2023-01-13T21:55:25.338Z,100.00
2023-01-13T21:58:21.097Z,100.00
2023-01-13T22:00:49.500Z,100.00
2023-01-13T22:03:18.331Z,100.00
2023-01-13T22:05:46.075Z,100.00
2023-01-13T22:08:13.704Z,100.00
2023-01-13T22:10:57.809Z,100.00
2023-01-13T22:14:00.145Z,100.00
2023-01-13T22:16:27.000Z,100.00
2023-01-13T22:18:53.619Z,100.00
2023-01-13T22:21:20.600Z,100.00
2023-01-13T22:23:47.288Z,100.00
2023-01-13T22:26:13.887Z,100.00
2023-01-13T22:28:42.662Z,100.00
2023-01-13T22:31:11.053Z,100.00
2023-01-13T22:33:38.192Z,100.00
2023-01-13T22:36:05.818Z,100.00
2023-01-13T22:38:34.763Z,100.00
2023-01-13T22:41:03.715Z,100.00
2023-01-13T22:43:31.076Z,100.00
2023-01-13T22:45:57.686Z,100.00
2023-01-13T22:48:24.373Z,100.00
2023-01-13T22:50:50.982Z,100.00
2023-01-13T22:53:17.728Z,100.00
2023-01-13T22:55:44.595Z,100.00
2023-01-13T22:58:11.158Z,100.00
2023-01-13T23:00:37.791Z,100.00
2023-01-13T23:03:05.224Z,100.00
2023-01-13T23:05:31.789Z,100.00
2023-01-13T23:07:58.348Z,100.00
2023-01-13T23:10:24.973Z,100.00
2023-01-13T23:12:53.108Z,100.00
2023-01-13T23:15:20.407Z,100.00
2023-01-13T23:17:50.935Z,100.00
2023-01-13T23:20:17.807Z,100.00
2023-01-13T23:22:44.476Z,100.00
2023-01-13T23:25:11.422Z,100.00
2023-01-13T23:27:38.041Z,100.00
2023-01-13T23:30:07.443Z,100.00
2023-01-13T23:32:35.054Z,100.00
2023-01-13T23:35:02.122Z,100.00
2023-01-13T23:37:28.698Z,100.00
2023-01-13T23:39:55.254Z,100.00
2023-01-13T23:42:21.834Z,100.00
2023-01-13T23:44:48.404Z,100.00
2023-01-13T23:47:14.972Z,100.00
2023-01-13T23:49:41.667Z,100.00
2023-01-13T23:52:08.519Z,100.00
2023-01-13T23:54:35.253Z,100.00
2023-01-13T23:57:01.851Z,100.00
2023-01-13T23:59:28.428Z,100.00
